Time;durP1;ratioP1;P1;durP2;ratioP2;P2;SDS_P1;SDS_P2;PMS_P1;PMS_P2;Temp;Humidity;BMP_temperature;BMP_pressure;BME280_temperature;BME280_humidity;BME280_pressure;Samples;Min_cycle;Max_cycle;Signal;HPM_P1;HPM_P2
2021/12/15 00:01:26;;;;;;;78.80;35.08;;;;;;;9.47;100.00;102917.09;5078700;28;20020;-75
2021/12/15 00:03:52;;;;;;;78.38;34.92;;;;;;;9.41;100.00;102915.03;5080892;28;20031;-75
2021/12/15 00:06:19;;;;;;;83.82;35.97;;;;;;;9.41;100.00;102918.59;5088177;28;20050;-75
2021/12/15 00:08:57;;;;;;;73.28;33.10;;;;;;;9.46;100.00;102916.19;5093372;28;20024;-75
2021/12/15 00:11:32;;;;;;;73.28;34.22;;;;;;;9.41;100.00;102918.59;5086253;28;20090;-76
2021/12/15 00:13:58;;;;;;;72.65;32.40;;;;;;;9.45;100.00;102923.19;5082731;28;20115;-75
2021/12/15 00:16:23;;;;;;;74.50;32.72;;;;;;;9.47;100.00;102922.34;5099661;28;20035;-77
2021/12/15 00:18:49;;;;;;;71.93;31.88;;;;;;;9.40;100.00;102922.03;5082404;28;20024;-76
2021/12/15 00:21:18;;;;;;;72.00;33.40;;;;;;;9.39;100.00;102920.22;5090039;28;20044;-76
2021/12/15 00:23:45;;;;;;;68.10;33.90;;;;;;;9.41;100.00;102918.59;5082628;28;20084;-76
2021/12/15 00:26:12;;;;;;;71.07;32.03;;;;;;;9.41;100.00;102917.66;5076247;28;20028;-77
2021/12/15 00:28:39;;;;;;;62.47;32.05;;;;;;;9.44;100.00;102913.50;5088497;28;20042;-77
2021/12/15 00:31:05;;;;;;;67.95;33.65;;;;;;;9.45;100.00;102912.69;5089669;28;20023;-77
2021/12/15 00:33:35;;;;;;;65.40;31.50;;;;;;;9.44;100.00;102912.56;5098516;28;20031;-76
2021/12/15 00:36:02;;;;;;;65.57;31.35;;;;;;;9.42;100.00;102906.34;5081015;28;20048;-76
2021/12/15 00:38:27;;;;;;;65.40;31.63;;;;;;;9.44;100.00;102913.50;5089038;28;20035;-76
2021/12/15 00:40:53;;;;;;;64.85;31.42;;;;;;;9.45;100.00;102914.38;5109218;28;20039;-77
2021/12/15 00:43:18;;;;;;;73.82;33.30;;;;;;;9.40;100.00;102911.53;5100071;28;20038;-76
2021/12/15 00:45:45;;;;;;;64.88;33.38;;;;;;;9.36;100.00;102914.81;5080373;28;20020;-76
2021/12/15 00:48:11;;;;;;;63.55;31.35;;;;;;;9.39;100.00;102914.97;5105413;28;20024;-76
2021/12/15 00:50:37;;;;;;;62.85;30.48;;;;;;;9.43;100.00;102914.31;5101898;28;20368;-76
2021/12/15 00:53:04;;;;;;;66.65;32.30;;;;;;;9.40;100.00;102914.16;5110988;28;20487;-76
2021/12/15 00:55:30;;;;;;;69.10;30.80;;;;;;;9.44;100.00;102909.94;5104597;28;20031;-76
2021/12/15 00:57:56;;;;;;;63.42;31.30;;;;;;;9.40;100.00;102914.16;5089894;28;20396;-76
2021/12/15 01:00:31;;;;;;;66.00;31.70;;;;;;;9.40;100.00;102911.53;5109165;28;20407;-76
2021/12/15 01:02:58;;;;;;;68.28;31.30;;;;;;;9.40;100.00;102911.53;5102159;28;20472;-76
2021/12/15 01:05:30;;;;;;;70.80;32.45;;;;;;;9.37;100.00;102914.00;5093007;28;20027;-74
2021/12/15 01:07:55;;;;;;;68.15;30.77;;;;;;;9.37;100.00;102919.25;5093094;28;20023;-76
2021/12/15 01:10:29;;;;;;;63.70;30.92;;;;;;;9.37;100.00;102919.25;5107985;28;20032;-76
2021/12/15 01:21:10;;;;;;;69.68;31.20;;;;;;;9.37;100.00;102914.00;5100865;28;20042;-75
2021/12/15 01:23:37;;;;;;;64.88;30.77;;;;;;;9.38;100.00;102913.16;5104051;28;20514;-75
2021/12/15 01:26:12;;;;;;;66.03;30.63;;;;;;;9.41;100.00;102915.03;5080938;28;20043;-76
2021/12/15 01:28:38;;;;;;;70.80;31.63;;;;;;;9.41;100.00;102917.66;5112187;28;20027;-76
2021/12/15 01:31:08;;;;;;;59.63;31.08;;;;;;;9.36;100.00;102914.81;5080123;28;20055;-76
2021/12/15 01:33:38;;;;;;;59.40;31.23;;;;;;;9.37;100.00;102914.00;5082908;28;20427;-77
2021/12/15 01:36:06;;;;;;;54.83;28.40;;;;;;;9.40;100.00;102916.78;5091937;28;20047;-76
2021/12/15 01:38:34;;;;;;;60.55;30.08;;;;;;;9.40;100.00;102914.16;5107747;28;20106;-76
2021/12/15 01:41:00;;;;;;;62.05;30.00;;;;;;;9.39;100.00;102921.94;5112382;28;20024;-76
2021/12/15 01:49:16;;;;;;;59.80;29.73;;;;;;;9.38;100.00;102926.28;5082944;28;20051;-76
2021/12/15 01:51:42;;;;;;;57.05;27.67;;;;;;;9.38;100.00;102928.91;5076098;28;20047;-77
2021/12/15 01:54:09;;;;;;;63.33;28.77;;;;;;;9.39;100.00;102930.72;5112094;28;20027;-76
2021/12/15 01:56:36;;;;;;;59.22;29.48;;;;;;;9.39;100.00;102922.84;5102307;28;20047;-76
2021/12/15 01:59:03;;;;;;;59.33;28.50;;;;;;;9.40;100.00;102921.09;5079873;28;20036;-76
2021/12/15 02:01:30;;;;;;;62.50;28.10;;;;;;;9.41;100.00;102939.63;5107448;28;20028;-76
2021/12/15 02:03:56;;;;;;;55.35;27.95;;;;;;;9.42;100.00;102938.78;5109950;28;20032;-76
2021/12/15 02:06:21;;;;;;;57.03;29.77;;;;;;;9.40;100.00;102943.06;5085482;28;20479;-76
2021/12/15 02:08:48;;;;;;;57.33;28.05;;;;;;;9.40;100.00;102943.06;5102562;28;20039;-76
2021/12/15 02:11:14;;;;;;;55.13;27.92;;;;;;;9.44;100.00;102945.03;5084060;28;20032;-76
2021/12/15 02:13:40;;;;;;;63.60;27.23;;;;;;;9.39;100.00;102943.88;5107841;28;20062;-76
2021/12/15 02:16:07;;;;;;;57.35;27.50;;;;;;;9.39;100.00;102941.25;5108762;28;20115;-76
2021/12/15 02:18:37;;;;;;;56.80;27.95;;;;;;;9.35;100.00;102941.00;5085464;28;20031;-76
2021/12/15 02:21:14;;;;;;;58.00;26.45;;;;;;;9.38;100.00;102947.31;5090453;28;20482;-75
2021/12/15 02:23:45;;;;;;;62.60;27.15;;;;;;;9.39;100.00;102950.84;5080747;28;20035;-75
2021/12/15 02:26:21;;;;;;;56.60;26.80;;;;;;;9.37;100.00;102945.53;5107648;28;20031;-75
2021/12/15 02:28:52;;;;;;;50.80;25.58;;;;;;;9.42;100.00;102943.13;5088992;28;20030;-75
2021/12/15 02:39:44;;;;;;;63.30;27.83;;;;;;;9.40;100.00;102944.75;5106885;28;20047;-75
2021/12/15 02:42:09;;;;;;;52.90;25.60;;;;;;;9.40;100.00;102947.38;5079691;28;20032;-75
2021/12/15 02:44:35;;;;;;;55.92;26.40;;;;;;;9.41;100.00;102949.19;5107999;28;20037;-75
2021/12/15 02:47:00;;;;;;;51.47;24.75;;;;;;;9.46;100.00;102953.00;5110277;28;20065;-76
2021/12/15 02:49:28;;;;;;;57.90;24.40;;;;;;;9.41;100.00;102947.50;5106315;28;20462;-76
2021/12/15 02:51:57;;;;;;;49.28;24.85;;;;;;;9.48;100.00;102946.06;5085523;28;20118;-77
2021/12/15 02:54:24;;;;;;;44.38;23.65;;;;;;;9.52;100.00;102945.47;5100027;28;20078;-77
2021/12/15 02:56:53;;;;;;;55.17;25.40;;;;;;;9.47;100.00;102943.38;5085197;28;20494;-75
2021/12/15 02:59:38;;;;;;;52.35;24.27;;;;;;;9.45;100.00;102945.91;5098770;28;20047;-76
2021/12/15 03:02:25;;;;;;;53.15;24.23;;;;;;;9.49;100.00;102947.00;5106218;28;20024;-76
2021/12/15 03:05:05;;;;;;;49.40;25.38;;;;;;;9.50;100.00;102954.06;5084818;28;20399;-75
2021/12/15 03:07:48;;;;;;;49.15;24.60;;;;;;;9.50;100.00;102948.81;5109299;28;20161;-76
2021/12/15 03:15:50;;;;;;;56.00;24.55;;;;;;;9.43;100.00;102952.84;5101971;28;20448;-75
2021/12/15 03:18:22;;;;;;;52.78;25.40;;;;;;;9.43;100.00;102947.56;5101393;28;20034;-75
2021/12/15 03:20:55;;;;;;;50.78;24.50;;;;;;;9.40;100.00;102950.94;5082211;28;20032;-76
2021/12/15 03:23:51;;;;;;;54.58;23.52;;;;;;;9.49;100.00;102952.25;5100884;28;20052;-76
2021/12/15 03:26:21;;;;;;;51.58;24.98;;;;;;;9.48;100.00;102953.06;5112118;28;20027;-76
2021/12/15 03:34:37;;;;;;;;;;;;;;;9.45;100.00;102952.09;5103291;28;20042;-76
2021/12/15 03:37:08;;;;;;;48.88;23.50;;;;;;;9.52;100.00;102953.34;5103399;28;19923;-76
2021/12/15 03:39:43;;;;;;;47.67;23.73;;;;;;;9.53;100.00;102960.38;5083309;28;20031;-76
2021/12/15 03:42:11;;;;;;;56.28;24.17;;;;;;;9.48;100.00;102956.59;5086454;28;20036;-75
2021/12/15 03:44:40;;;;;;;50.00;25.33;;;;;;;9.48;100.00;102960.97;5086203;28;20062;-75
2021/12/15 03:47:09;;;;;;;59.42;26.48;;;;;;;9.50;100.00;102964.59;5104959;28;20463;-75
2021/12/15 03:49:36;;;;;;;61.03;25.35;;;;;;;9.50;100.00;102959.34;5092144;28;20103;-75
2021/12/15 03:52:06;;;;;;;51.95;25.02;;;;;;;9.47;100.00;102961.78;5088399;28;20043;-76
2021/12/15 03:54:32;;;;;;;61.03;25.95;;;;;;;9.48;100.00;102960.97;5104005;28;20444;-75
2021/12/15 03:56:57;;;;;;;65.25;26.00;;;;;;;9.50;100.00;102960.22;5080341;28;20024;-75
2021/12/15 03:59:24;;;;;;;60.90;26.23;;;;;;;9.52;100.00;102962.94;5103348;28;20418;-75
2021/12/15 04:01:50;;;;;;;56.10;25.25;;;;;;;9.47;100.00;102962.69;5085724;28;20467;-75
2021/12/15 04:04:15;;;;;;;51.17;23.52;;;;;;;9.51;100.00;102967.28;5091111;28;20080;-75
2021/12/15 04:06:42;;;;;;;51.13;23.55;;;;;;;9.54;100.00;102963.94;5107551;28;20043;-76
2021/12/15 04:09:10;;;;;;;52.35;24.65;;;;;;;9.56;100.00;102970.16;5084525;28;20027;-76
2021/12/15 04:11:41;;;;;;;52.35;25.23;;;;;;;9.53;100.00;102970.91;5088901;28;20402;-75
2021/12/15 04:14:11;;;;;;;54.78;25.38;;;;;;;9.53;100.00;102970.00;5109045;28;20035;-76
2021/12/15 04:16:45;;;;;;;53.55;26.10;;;;;;;9.54;100.00;102971.81;5083903;28;20197;-75
2021/12/15 04:19:21;;;;;;;54.22;24.88;;;;;;;9.56;100.00;102975.41;5088023;28;20059;-76
2021/12/15 04:21:48;;;;;;;59.63;24.80;;;;;;;9.54;100.00;102967.47;5093322;28;20027;-75
2021/12/15 04:24:15;;;;;;;57.33;25.17;;;;;;;9.54;100.00;102969.19;5106400;28;20032;-75
2021/12/15 04:26:43;;;;;;;52.88;25.67;;;;;;;9.57;100.00;102977.25;5102972;28;20031;-75
2021/12/15 04:29:09;;;;;;;57.42;26.10;;;;;;;9.59;100.00;102983.47;5106490;28;20134;-76
2021/12/15 04:31:39;;;;;;;54.78;23.45;;;;;;;9.56;100.00;102978.06;5101669;28;20059;-76
2021/12/15 04:34:08;;;;;;;57.58;24.73;;;;;;;9.58;100.00;102973.81;5105911;28;20547;-76
2021/12/15 04:36:38;;;;;;;52.38;25.52;;;;;;;9.59;100.00;102981.75;5114499;28;20044;-76
2021/12/15 04:39:06;;;;;;;56.65;25.15;;;;;;;9.62;100.00;102978.41;5103287;28;20106;-76
2021/12/15 04:41:35;;;;;;;57.92;26.38;;;;;;;9.61;100.00;102977.47;5112831;28;20031;-75
2021/12/15 04:44:09;;;;;;;56.42;24.92;;;;;;;9.62;100.00;102981.03;5091589;28;20036;-75
2021/12/15 04:46:39;;;;;;;58.45;25.27;;;;;;;9.61;100.00;102979.22;5111757;28;20475;-76
2021/12/15 04:49:08;;;;;;;51.88;24.73;;;;;;;9.65;100.00;102978.56;5088057;28;20023;-75
2021/12/15 04:51:34;;;;;;;53.10;24.85;;;;;;;9.63;100.00;102977.59;5087727;28;20119;-75
2021/12/15 04:54:01;;;;;;;61.63;26.42;;;;;;;9.60;100.00;102975.69;5093258;28;20107;-76
2021/12/15 04:56:27;;;;;;;54.90;25.00;;;;;;;9.63;100.00;102977.59;5087311;28;20047;-75
2021/12/15 04:58:54;;;;;;;66.35;26.00;;;;;;;9.61;100.00;102979.22;5095430;28;20031;-75
2021/12/15 05:01:21;;;;;;;59.80;25.60;;;;;;;9.61;100.00;102976.59;5095480;28;20060;-76
2021/12/15 05:03:53;;;;;;;60.67;25.95;;;;;;;9.69;100.00;102977.91;5111162;28;20077;-75
2021/12/15 05:06:19;;;;;;;54.92;24.27;;;;;;;9.67;100.00;102978.63;5109096;28;20038;-76
2021/12/15 05:08:44;;;;;;;58.72;26.33;;;;;;;9.62;100.00;102979.28;5085133;28;20463;-75
2021/12/15 05:11:12;;;;;;;57.72;26.27;;;;;;;9.62;100.00;102989.81;5083447;28;20028;-76
2021/12/15 05:13:37;;;;;;;56.78;25.52;;;;;;;9.62;100.00;102992.44;5083092;28;20037;-75
2021/12/15 05:16:04;;;;;;;60.05;25.27;;;;;;;9.56;100.00;102981.59;5082671;28;20032;-76
2021/12/15 05:18:30;;;;;;;60.67;26.38;;;;;;;9.59;100.00;102996.59;5084818;28;20023;-75
2021/12/15 05:20:58;;;;;;;63.30;25.25;;;;;;;9.56;100.00;102985.94;5107644;28;20463;-76
2021/12/15 05:23:31;;;;;;;62.22;25.85;;;;;;;9.56;100.00;102992.13;5101056;28;20031;-76
2021/12/15 05:26:10;;;;;;;62.47;26.65;;;;;;;9.51;100.00;102987.41;5111008;28;20031;-75
2021/12/15 05:28:35;;;;;;;59.60;25.17;;;;;;;9.52;100.00;102989.22;5103381;28;20373;-75
2021/12/15 05:31:01;;;;;;;64.28;25.95;;;;;;;9.52;100.00;102991.84;5097833;28;20024;-76
2021/12/15 05:33:27;;;;;;;62.08;25.58;;;;;;;9.54;100.00;102985.84;5102460;28;20058;-76
2021/12/15 05:35:54;;;;;;;58.50;27.10;;;;;;;9.53;100.00;102989.28;5098741;28;20044;-75
2021/12/15 05:38:21;;;;;;;63.30;26.98;;;;;;;9.57;100.00;102987.75;5098793;28;20388;-75
2021/12/15 05:40:46;;;;;;;62.63;26.67;;;;;;;9.58;100.00;102989.56;5093790;28;20023;-76
2021/12/15 05:43:12;;;;;;;63.75;25.48;;;;;;;9.55;100.00;102989.38;5108243;28;20073;-75
2021/12/15 05:45:40;;;;;;;60.55;25.02;;;;;;;9.57;100.00;102995.63;5084921;28;20027;-76
2021/12/15 05:48:10;;;;;;;65.18;26.52;;;;;;;9.56;100.00;103001.69;5097289;28;20094;-76
2021/12/15 05:50:36;;;;;;;66.15;26.88;;;;;;;9.51;100.00;103004.09;5081760;28;20023;-76
2021/12/15 05:53:02;;;;;;;68.57;25.60;;;;;;;9.52;100.00;103004.97;5081857;28;20114;-76
2021/12/15 05:55:28;;;;;;;69.30;27.25;;;;;;;9.54;100.00;103006.00;5099025;28;20088;-76
2021/12/15 05:57:54;;;;;;;74.22;28.20;;;;;;;9.53;100.00;103005.06;5105365;28;20043;-76
2021/12/15 06:00:25;;;;;;;74.90;26.13;;;;;;;9.50;100.00;103006.63;5102060;28;20036;-75
2021/12/15 06:02:51;;;;;;;82.63;29.60;;;;;;;9.47;100.00;103009.06;5110632;28;20417;-76
2021/12/15 06:05:17;;;;;;;80.28;28.55;;;;;;;9.50;100.00;102993.50;5101292;28;20421;-75
2021/12/15 06:07:42;;;;;;;88.30;27.85;;;;;;;9.50;100.00;103001.38;5093499;28;20028;-76
2021/12/15 06:10:13;;;;;;;85.63;28.08;;;;;;;9.49;100.00;102999.56;5101873;28;20130;-75
2021/12/15 06:12:39;;;;;;;81.65;27.42;;;;;;;9.52;100.00;103004.97;5086916;28;20513;-74
2021/12/15 06:15:06;;;;;;;74.93;27.15;;;;;;;9.55;100.00;102999.88;5099223;28;20060;-72
2021/12/15 06:17:32;;;;;;;76.40;28.15;;;;;;;9.55;100.00;103003.44;5099513;28;20115;-72
2021/12/15 06:19:58;;;;;;;86.45;27.90;;;;;;;9.49;100.00;103016.22;5090109;28;20360;-72
2021/12/15 06:22:26;;;;;;;84.85;28.63;;;;;;;9.54;100.00;103014.75;5102749;28;20133;-72
2021/12/15 06:24:54;;;;;;;82.60;27.98;;;;;;;9.54;100.00;103012.13;5083820;28;20049;-72
2021/12/15 06:27:21;;;;;;;78.90;27.42;;;;;;;9.54;100.00;103001.63;5086016;28;20141;-72
2021/12/15 06:29:48;;;;;;;75.35;25.50;;;;;;;9.57;100.00;103019.28;5103317;28;20176;-72
2021/12/15 06:32:15;;;;;;;66.43;26.40;;;;;;;9.55;100.00;103016.59;5084039;28;20423;-72
2021/12/15 06:34:40;;;;;;;75.32;27.38;;;;;;;9.62;100.00;103021.34;5098844;28;20395;-73
2021/12/15 06:37:06;;;;;;;80.82;26.25;;;;;;;9.63;100.00;103022.28;5109094;28;20028;-73
2021/12/15 06:39:32;;;;;;;72.22;25.63;;;;;;;9.64;100.00;103026.69;5086637;28;20027;-72
2021/12/15 06:41:59;;;;;;;70.30;25.90;;;;;;;9.55;100.00;103027.09;5097252;28;20367;-73
2021/12/15 06:44:25;;;;;;;76.93;28.15;;;;;;;9.59;100.00;103028.16;5099588;28;20031;-72
2021/12/15 06:58:11;;;;;;;67.03;26.55;;;;;;;9.57;100.00;103042.94;5096061;28;20126;-71
2021/12/15 07:00:22;;;;;;;68.60;25.23;;;;;;;9.58;100.00;103047.41;5103756;28;20119;-73
2021/12/15 07:02:48;;;;;;;66.38;27.10;;;;;;;9.62;100.00;103045.00;5102629;28;20093;-73
2021/12/15 07:05:14;;;;;;;60.38;26.30;;;;;;;9.62;100.00;103050.28;5102990;28;20024;-72
2021/12/15 07:07:42;;;;;;;69.65;26.25;;;;;;;9.67;100.00;103047.00;5082794;28;20088;-73
2021/12/15 07:10:10;;;;;;;64.93;25.40;;;;;;;9.65;100.00;103046.91;5090159;28;20111;-73
2021/12/15 07:12:35;;;;;;;66.65;26.98;;;;;;;9.65;100.00;103054.78;5094793;28;20353;-73
2021/12/15 07:15:01;;;;;;;67.22;26.55;;;;;;;9.60;100.00;103045.75;5103310;28;20031;-73
2021/12/15 07:17:28;;;;;;;60.00;26.15;;;;;;;9.66;100.00;103053.06;5103371;28;20032;-72
2021/12/15 07:22:43;;;;;;;61.15;25.42;;;;;;;9.64;100.00;103052.97;5097680;28;20161;-72
2021/12/15 07:25:11;;;;;;;70.60;26.35;;;;;;;9.64;100.00;103055.59;5085991;28;20023;-72
2021/12/15 07:27:37;;;;;;;63.83;24.65;;;;;;;9.66;100.00;103048.72;5101427;28;20395;-72
2021/12/15 07:30:04;;;;;;;63.53;24.52;;;;;;;9.67;100.00;103061.06;5106178;28;20019;-73
2021/12/15 07:32:29;;;;;;;66.40;25.65;;;;;;;9.68;100.00;103057.59;5101477;28;20043;-73
2021/12/15 07:34:55;;;;;;;60.13;26.00;;;;;;;9.68;100.00;103059.31;5086043;28;20028;-72
2021/12/15 07:37:20;;;;;;;67.45;25.98;;;;;;;9.68;100.00;103052.31;5102608;28;20051;-72
2021/12/15 07:39:54;;;;;;;68.07;25.70;;;;;;;9.65;100.00;103054.78;5101345;28;20158;-72
2021/12/15 07:42:30;;;;;;;66.03;24.92;;;;;;;9.66;100.00;103061.88;5099883;28;20463;-72
2021/12/15 07:44:56;;;;;;;67.90;26.77;;;;;;;9.69;100.00;103062.03;5109016;28;20032;-72
2021/12/15 07:47:22;;;;;;;75.30;27.27;;;;;;;9.64;100.00;103052.97;5093644;28;20027;-72
2021/12/15 07:49:48;;;;;;;64.38;25.42;;;;;;;9.64;100.00;103058.22;5080081;28;20016;-73
2021/12/15 07:52:14;;;;;;;67.55;27.25;;;;;;;9.64;100.00;103060.88;5106952;28;20034;-72
2021/12/15 07:54:39;;;;;;;70.38;27.17;;;;;;;9.67;100.00;103063.69;5104438;28;20024;-72
2021/12/15 07:57:17;;;;;;;77.53;27.92;;;;;;;9.69;100.00;103051.53;5097560;28;20429;-72
2021/12/15 07:59:42;;;;;;;65.85;26.75;;;;;;;9.70;100.00;103063.84;5095658;28;20032;-73
2021/12/15 08:02:08;;;;;;;74.78;27.83;;;;;;;9.69;100.00;103067.28;5109002;28;20031;-73
2021/12/15 08:04:34;;;;;;;62.33;26.00;;;;;;;9.68;100.00;103075.09;5106577;28;20123;-72
2021/12/15 08:07:01;;;;;;;70.30;26.77;;;;;;;9.70;100.00;103079.63;5087793;28;20020;-72
2021/12/15 08:09:26;;;;;;;70.53;26.98;;;;;;;9.70;100.00;103065.56;5084743;28;20028;-72
2021/12/15 08:11:52;;;;;;;71.55;28.05;;;;;;;9.71;100.00;103070.94;5102137;28;20035;-73
2021/12/15 08:14:17;;;;;;;63.45;26.33;;;;;;;9.71;100.00;103070.00;5087234;28;20126;-72
2021/12/15 08:16:43;;;;;;;73.78;26.40;;;;;;;9.70;100.00;103077.00;5085951;28;20023;-73
2021/12/15 08:19:09;;;;;;;68.43;25.25;;;;;;;9.70;100.00;103079.63;5099839;28;20080;-72
2021/12/15 08:21:36;;;;;;;78.32;27.58;;;;;;;9.68;100.00;103076.00;5089361;28;20417;-73
2021/12/15 08:24:02;;;;;;;66.68;24.75;;;;;;;9.68;100.00;103075.09;5100033;28;20032;-71
2021/12/15 08:26:28;;;;;;;69.07;24.83;;;;;;;9.68;100.00;103076.00;5102841;28;20036;-73
2021/12/15 08:28:55;;;;;;;66.85;24.25;;;;;;;9.66;100.00;103069.75;5083182;28;20020;-73
2021/12/15 08:31:21;;;;;;;68.28;25.33;;;;;;;9.67;100.00;103079.47;5103845;28;20036;-73
2021/12/15 08:33:47;;;;;;;61.67;25.50;;;;;;;9.68;100.00;103086.50;5104134;28;21428;-72
2021/12/15 08:36:15;;;;;;;63.53;23.67;;;;;;;9.72;100.00;103084.97;5100284;28;20062;-72
2021/12/15 08:38:43;;;;;;;56.85;23.23;;;;;;;9.74;100.00;103086.88;5102333;28;20032;-72
2021/12/15 08:41:15;;;;;;;55.25;23.38;;;;;;;9.77;100.00;103081.78;5100821;28;20036;-72
2021/12/15 08:43:41;;;;;;;54.53;23.42;;;;;;;9.81;100.00;103081.94;5103398;28;20050;-71
2021/12/15 08:46:13;;;;;;;58.92;24.25;;;;;;;9.74;100.00;103084.25;5102280;28;20036;-72
2021/12/15 08:48:40;;;;;;;60.28;23.48;;;;;;;9.75;100.00;103086.06;5086169;28;20031;-73
2021/12/15 08:51:08;;;;;;;62.10;23.70;;;;;;;9.77;100.00;103087.03;5069582;28;20387;-72
2021/12/15 08:53:35;;;;;;;52.67;21.67;;;;;;;9.82;100.00;103091.63;5102324;28;20088;-73
2021/12/15 08:56:01;;;;;;;63.25;23.63;;;;;;;9.82;100.00;103089.94;5102218;28;20035;-72
2021/12/15 08:58:26;;;;;;;55.33;22.20;;;;;;;9.84;100.00;103097.91;5085420;28;20032;-72
2021/12/15 09:00:56;;;;;;;46.78;21.13;;;;;;;9.82;100.00;103100.44;5099637;28;20028;-73
2021/12/15 09:03:22;;;;;;;48.42;21.38;;;;;;;9.84;100.00;103103.16;5105443;28;20498;-73
2021/12/15 09:05:51;;;;;;;52.30;20.65;;;;;;;9.85;100.00;103099.69;5101234;28;20028;-73
2021/12/15 09:08:17;;;;;;;48.15;21.48;;;;;;;9.86;100.00;103098.88;5107577;28;20020;-72
2021/12/15 09:10:45;;;;;;;45.20;19.27;;;;;;;9.88;100.00;103106.03;5102872;28;20497;-71
2021/12/15 09:13:12;;;;;;;43.15;19.92;;;;;;;9.92;100.00;103112.38;5110099;28;20032;-72
2021/12/15 09:15:40;;;;;;;47.58;20.90;;;;;;;9.91;100.00;103115.81;5107469;28;20464;-72
2021/12/15 09:18:06;;;;;;;45.50;20.23;;;;;;;9.92;100.00;103112.38;5105611;28;20443;-72
2021/12/15 09:20:34;;;;;;;49.35;21.38;;;;;;;9.91;100.00;103110.56;5099825;28;20042;-72
2021/12/15 09:23:03;;;;;;;59.97;22.17;;;;;;;9.94;100.00;103115.97;5104967;28;20084;-72
2021/12/15 09:25:29;;;;;;;47.60;20.83;;;;;;;9.96;100.00;103122.25;5089376;28;20487;-72
2021/12/15 09:27:58;;;;;;;37.13;17.77;;;;;;;9.98;100.00;103123.22;5104587;27;20034;-73
2021/12/15 09:30:26;;;;;;;42.03;16.58;;;;;;;10.01;100.00;103128.69;5088939;28;20044;-73
2021/12/15 09:32:51;;;;;;;38.10;16.38;;;;;;;10.02;100.00;103119.94;5102598;28;20036;-73
2021/12/15 09:35:18;;;;;;;35.28;16.38;;;;;;;10.02;100.00;103119.94;5085679;28;20055;-72
2021/12/15 09:37:44;;;;;;;34.38;16.38;;;;;;;10.04;100.00;103128.84;5085518;28;20039;-72
2021/12/15 09:40:11;;;;;;;37.65;15.63;;;;;;;10.00;100.00;103125.94;5078750;28;20048;-72
2021/12/15 09:42:39;;;;;;;41.08;17.05;;;;;;;10.01;100.00;103140.91;5100403;28;20024;-72
2021/12/15 09:45:22;;;;;;;34.42;16.05;;;;;;;10.01;100.00;103143.53;5086209;28;20463;-72
2021/12/15 10:18:00;;;;;;;27.77;12.85;;;;;;;9.98;100.00;103164.41;5101227;28;20039;-72
2021/12/15 10:20:28;;;;;;;32.28;13.27;;;;;;;10.05;100.00;103158.66;5099721;28;20375;-72
2021/12/15 10:23:00;;;;;;;29.15;11.15;;;;;;;10.07;100.00;103157.94;5100508;28;20114;-73
2021/12/15 10:25:34;;;;;;;37.40;13.02;;;;;;;10.12;100.00;103167.00;5082832;28;20035;-72
2021/12/15 10:28:16;;;;;;;26.58;12.10;;;;;;;10.19;100.00;103164.72;5107650;28;20031;-72
2021/12/15 10:30:45;;;;;;;26.90;12.30;;;;;;;10.21;100.00;103163.97;5103474;28;20039;-73
2021/12/15 10:33:37;;;;;;;27.50;12.13;;;;;;;10.24;100.00;103157.97;5100613;28;20548;-72
2021/12/15 10:36:09;;;;;;;27.73;10.77;;;;;;;10.29;100.00;103167.94;5082798;28;20040;-72
2021/12/15 10:38:41;;;;;;;21.30;9.90;;;;;;;10.31;100.00;103160.13;5106481;28;20360;-72
2021/12/15 10:41:12;;;;;;;25.15;9.68;;;;;;;10.34;100.00;103162.94;5098488;28;20089;-73
2021/12/15 10:43:48;;;;;;;29.80;10.15;;;;;;;10.38;100.00;103164.94;5101367;28;20495;-72
2021/12/15 10:46:26;;;;;;;22.80;9.80;;;;;;;10.39;100.00;103164.13;5103140;28;20092;-72
2021/12/15 10:48:55;;;;;;;18.83;8.23;;;;;;;10.48;100.00;103162.81;5100762;28;20066;-72
2021/12/15 10:51:48;;;;;;;19.92;7.15;;;;;;;10.49;100.00;103160.25;5084880;28;20039;-73
2021/12/15 10:54:16;;;;;;;14.10;5.60;;;;;;;10.45;100.00;103161.81;5080696;28;20036;-71
2021/12/15 10:56:54;;;;;;;15.60;6.18;;;;;;;10.59;100.00;103166.94;5083213;28;20027;-73
2021/12/15 10:59:20;;;;;;;14.60;6.47;;;;;;;10.63;100.00;103161.00;5085494;28;20032;-72
2021/12/15 11:01:48;;;;;;;16.50;6.20;;;;;;;10.63;100.00;103163.63;5096342;28;20073;-71
2021/12/15 11:04:35;;;;;;;18.83;6.10;;;;;;;10.62;100.00;103159.19;5102384;28;20110;-72
2021/12/15 11:07:12;;;;;;;13.50;6.10;;;;;;;10.64;100.00;103149.66;5108230;28;20700;-72
2021/12/15 11:09:46;;;;;;;14.63;5.28;;;;;;;10.69;100.00;103157.78;5089852;28;20435;-71
2021/12/15 11:12:20;;;;;;;19.90;5.35;;;;;;;10.67;100.00;103148.91;5087994;28;20031;-71
2021/12/15 11:14:50;;;;;;;18.05;4.75;;;;;;;10.77;100.00;103157.38;5085979;28;20039;-72
2021/12/15 11:17:23;;;;;;;8.55;3.90;;;;;;;10.79;99.89;103154.84;5103015;28;20027;-72
2021/12/15 11:19:56;;;;;;;11.10;4.30;;;;;;;10.78;99.59;103146.03;5085220;28;20030;-71
2021/12/15 11:22:44;;;;;;;12.43;3.65;;;;;;;10.78;97.99;103150.38;5089800;28;20107;-72
2021/12/15 11:25:22;;;;;;;11.93;2.50;;;;;;;10.81;97.70;103150.53;5082573;28;20031;-71
2021/12/15 11:27:54;;;;;;;9.90;3.15;;;;;;;10.78;96.98;103153.94;5101592;28;20039;-73
2021/12/15 11:30:27;;;;;;;7.82;2.60;;;;;;;10.80;96.35;103148.75;5106015;28;20038;-72
2021/12/15 11:32:55;;;;;;;5.03;2.38;;;;;;;10.82;94.59;103144.44;5102659;28;20464;-72
2021/12/15 11:35:26;;;;;;;8.75;2.10;;;;;;;10.83;95.23;103151.53;5103166;28;20372;-73
2021/12/15 11:38:07;;;;;;;8.55;2.65;;;;;;;10.85;94.61;103146.34;5087357;28;20379;-72
2021/12/15 11:40:34;;;;;;;10.95;2.67;;;;;;;10.87;94.58;103148.22;5099352;28;20027;-72
2021/12/15 11:43:01;;;;;;;8.27;2.40;;;;;;;10.86;94.53;103154.31;5099994;28;20032;-72
2021/12/15 11:45:27;;;;;;;12.27;2.88;;;;;;;10.78;93.45;103153.94;5094168;28;20032;-71
2021/12/15 11:48:18;;;;;;;8.57;2.78;;;;;;;10.76;93.79;103150.31;5084199;28;20036;-72
2021/12/15 11:50:45;;;;;;;12.70;2.72;;;;;;;10.78;93.66;103148.66;5091907;28;20032;-71
2021/12/15 11:53:29;;;;;;;8.60;2.65;;;;;;;10.76;94.16;103150.31;5100521;28;20030;-71
2021/12/15 11:56:29;;;;;;;9.65;2.80;;;;;;;10.79;95.32;103147.81;5081362;28;20059;-73
2021/12/15 11:58:59;;;;;;;12.80;3.47;;;;;;;10.82;95.94;103156.72;5080042;28;20070;-71
2021/12/15 12:01:48;;;;;;;12.50;4.22;;;;;;;10.76;95.64;103150.31;5098249;28;20020;-72
2021/12/15 12:04:15;;;;;;;13.65;5.03;;;;;;;10.83;96.40;103148.00;5104370;28;20032;-73
2021/12/15 12:06:43;;;;;;;10.40;4.32;;;;;;;10.82;96.59;103156.72;5100719;28;20059;-72
2021/12/15 12:09:08;;;;;;;22.02;5.53;;;;;;;10.83;97.11;103156.81;5099550;28;20059;-71
2021/12/15 12:11:39;;;;;;;11.15;4.70;;;;;;;10.73;97.15;103150.16;5104329;28;20059;-71
2021/12/15 12:14:05;;;;;;;12.43;5.60;;;;;;;10.83;97.60;103155.91;5106324;28;20019;-72
2021/12/15 12:16:30;;;;;;;11.90;5.32;;;;;;;10.71;97.77;103146.50;5100468;28;20030;-74
2021/12/15 12:18:56;;;;;;;13.20;6.03;;;;;;;10.69;97.65;103141.97;5086057;28;20072;-72
2021/12/15 12:21:22;;;;;;;11.40;4.72;;;;;;;10.71;97.77;103146.50;5100720;28;20454;-71
2021/12/15 12:23:49;;;;;;;14.27;6.13;;;;;;;10.79;98.08;103128.50;5098124;28;20047;-72
2021/12/15 12:26:16;;;;;;;19.13;5.82;;;;;;;10.78;98.03;103137.22;5096252;28;20035;-71
2021/12/15 12:28:43;;;;;;;18.30;6.95;;;;;;;10.78;98.42;103151.31;5101813;28;20036;-72
2021/12/15 12:31:12;;;;;;;17.90;5.85;;;;;;;10.77;98.75;103136.31;5083722;28;20054;-71
2021/12/15 12:33:38;;;;;;;16.15;7.25;;;;;;;10.74;99.77;103141.44;5100141;28;20153;-71
2021/12/15 12:36:13;;;;;;;18.48;7.50;;;;;;;10.70;100.00;103142.09;5104870;28;20109;-71